sensor_id;sensor_type;location;lat;lon;timestamp;pressure;altitude;pressure_sealevel;temperature;humidity
31403;BME280;18039;52.188;21.024;2022-07-19T00:00:35;75757.81;;;-141.45;57.81
31403;BME280;18039;52.188;21.024;2022-07-19T00:03:05;75749.72;;;-141.45;57.74
31403;BME280;18039;52.188;21.024;2022-07-19T00:05:32;75757.81;;;-141.45;57.90
31403;BME280;18039;52.188;21.024;2022-07-19T00:07:59;75765.94;;;-141.45;58.02
31403;BME280;18039;52.188;21.024;2022-07-19T00:10:26;75763.91;;;-141.45;57.51
31403;BME280;18039;52.188;21.024;2022-07-19T00:12:53;75749.72;;;-141.45;57.03
31403;BME280;18039;52.188;21.024;2022-07-19T00:15:20;75751.75;;;-141.45;56.60
31403;BME280;18039;52.188;21.024;2022-07-19T00:17:48;75749.72;;;-141.45;57.17
31403;BME280;18039;52.188;21.024;2022-07-19T00:20:19;75749.72;;;-141.45;57.21
31403;BME280;18039;52.188;21.024;2022-07-19T00:22:46;75745.66;;;-141.45;57.55
31403;BME280;18039;52.188;21.024;2022-07-19T00:25:13;75763.91;;;-141.45;57.64
31403;BME280;18039;52.188;21.024;2022-07-19T00:27:40;75761.88;;;-141.45;58.03
31403;BME280;18039;52.188;21.024;2022-07-19T00:30:09;75765.94;;;-141.45;58.23
31403;BME280;18039;52.188;21.024;2022-07-19T00:32:36;75770.00;;;-141.45;58.59
31403;BME280;18039;52.188;21.024;2022-07-19T00:35:04;75772.00;;;-141.45;58.19
31403;BME280;18039;52.188;21.024;2022-07-19T00:37:31;75770.00;;;-141.45;58.04
31403;BME280;18039;52.188;21.024;2022-07-19T00:39:58;75761.88;;;-141.45;58.01
31403;BME280;18039;52.188;21.024;2022-07-19T00:42:25;75765.94;;;-141.45;58.38
31403;BME280;18039;52.188;21.024;2022-07-19T00:44:52;75770.00;;;-141.45;58.44
31403;BME280;18039;52.188;21.024;2022-07-19T00:47:20;75770.00;;;-141.45;58.80
31403;BME280;18039;52.188;21.024;2022-07-19T00:49:47;75782.16;;;-141.45;58.70
31403;BME280;18039;52.188;21.024;2022-07-19T00:52:14;75778.09;;;-141.45;58.75
31403;BME280;18039;52.188;21.024;2022-07-19T00:54:43;75782.16;;;-141.45;58.78
31403;BME280;18039;52.188;21.024;2022-07-19T00:57:10;75782.16;;;-141.45;58.86
31403;BME280;18039;52.188;21.024;2022-07-19T00:59:38;75782.16;;;-141.45;58.98
31403;BME280;18039;52.188;21.024;2022-07-19T01:02:05;75774.03;;;-141.45;59.41
31403;BME280;18039;52.188;21.024;2022-07-19T01:04:33;75774.03;;;-141.45;59.71
31403;BME280;18039;52.188;21.024;2022-07-19T01:07:00;75774.03;;;-141.45;59.88
31403;BME280;18039;52.188;21.024;2022-07-19T01:09:29;75774.03;;;-141.45;59.94
31403;BME280;18039;52.188;21.024;2022-07-19T01:11:56;75774.03;;;-141.45;59.69
31403;BME280;18039;52.188;21.024;2022-07-19T01:14:23;75780.13;;;-141.45;59.25
31403;BME280;18039;52.188;21.024;2022-07-19T01:16:51;75778.09;;;-141.45;59.29
31403;BME280;18039;52.188;21.024;2022-07-19T01:19:17;75778.09;;;-141.45;59.59
31403;BME280;18039;52.188;21.024;2022-07-19T01:21:44;75778.09;;;-141.45;59.85
31403;BME280;18039;52.188;21.024;2022-07-19T01:24:12;75782.16;;;-141.45;60.41
31403;BME280;18039;52.188;21.024;2022-07-19T01:26:39;75786.19;;;-141.45;60.56
31403;BME280;18039;52.188;21.024;2022-07-19T01:29:05;75786.19;;;-141.45;60.84
31403;BME280;18039;52.188;21.024;2022-07-19T01:31:33;75790.25;;;-141.45;61.01
31403;BME280;18039;52.188;21.024;2022-07-19T01:34:00;75794.31;;;-141.45;61.27
31403;BME280;18039;52.188;21.024;2022-07-19T01:36:27;75798.38;;;-141.45;61.81
31403;BME280;18039;52.188;21.024;2022-07-19T01:38:54;75802.41;;;-141.45;62.11
31403;BME280;18039;52.188;21.024;2022-07-19T01:41:21;75808.50;;;-141.45;62.10
31403;BME280;18039;52.188;21.024;2022-07-19T01:43:48;75804.44;;;-141.45;62.15
31403;BME280;18039;52.188;21.024;2022-07-19T01:46:15;75804.44;;;-141.45;62.75
31403;BME280;18039;52.188;21.024;2022-07-19T01:48:42;75802.41;;;-141.45;62.90
31403;BME280;18039;52.188;21.024;2022-07-19T01:51:09;75812.56;;;-141.45;63.00
31403;BME280;18039;52.188;21.024;2022-07-19T01:53:36;75812.56;;;-141.45;62.97
31403;BME280;18039;52.188;21.024;2022-07-19T01:56:04;75814.56;;;-141.45;63.46
31403;BME280;18039;52.188;21.024;2022-07-19T01:58:31;75814.56;;;-141.45;63.45
31403;BME280;18039;52.188;21.024;2022-07-19T02:01:01;75810.53;;;-141.45;63.58
31403;BME280;18039;52.188;21.024;2022-07-19T02:03:28;75814.56;;;-141.45;63.67
31403;BME280;18039;52.188;21.024;2022-07-19T02:05:55;75814.56;;;-141.45;63.83
31403;BME280;18039;52.188;21.024;2022-07-19T02:08:22;75814.56;;;-141.45;63.79
31403;BME280;18039;52.188;21.024;2022-07-19T02:10:50;75810.53;;;-141.45;63.77
31403;BME280;18039;52.188;21.024;2022-07-19T02:13:17;75816.59;;;-141.45;64.04
31403;BME280;18039;52.188;21.024;2022-07-19T02:15:44;75822.69;;;-141.45;64.29
31403;BME280;18039;52.188;21.024;2022-07-19T02:18:12;75822.69;;;-141.45;64.30
31403;BME280;18039;52.188;21.024;2022-07-19T02:20:39;75822.69;;;-141.45;64.25
31403;BME280;18039;52.188;21.024;2022-07-19T02:23:06;75822.69;;;-141.45;64.31
31403;BME280;18039;52.188;21.024;2022-07-19T02:25:33;75822.69;;;-141.45;64.43
31403;BME280;18039;52.188;21.024;2022-07-19T02:28:00;75832.81;;;-141.45;64.49
31403;BME280;18039;52.188;21.024;2022-07-19T02:30:27;75834.84;;;-141.45;64.88
31403;BME280;18039;52.188;21.024;2022-07-19T02:32:54;75836.88;;;-141.45;65.17
31403;BME280;18039;52.188;21.024;2022-07-19T02:35:25;75834.84;;;-141.45;65.42
31403;BME280;18039;52.188;21.024;2022-07-19T02:37:52;75834.84;;;-141.45;65.72
31403;BME280;18039;52.188;21.024;2022-07-19T02:40:19;75834.84;;;-141.45;65.79
31403;BME280;18039;52.188;21.024;2022-07-19T02:42:46;75830.78;;;-141.45;66.13
31403;BME280;18039;52.188;21.024;2022-07-19T02:45:13;75826.72;;;-141.45;66.01
31403;BME280;18039;52.188;21.024;2022-07-19T02:47:39;75822.69;;;-141.45;66.10
31403;BME280;18039;52.188;21.024;2022-07-19T02:50:07;75814.56;;;-141.45;66.15
31403;BME280;18039;52.188;21.024;2022-07-19T02:52:34;75808.50;;;-141.45;66.08
31403;BME280;18039;52.188;21.024;2022-07-19T02:55:01;75810.53;;;-141.45;66.21
31403;BME280;18039;52.188;21.024;2022-07-19T02:57:28;75812.56;;;-141.45;66.69
31403;BME280;18039;52.188;21.024;2022-07-19T02:59:55;75812.56;;;-141.45;66.80
31403;BME280;18039;52.188;21.024;2022-07-19T03:02:22;75818.63;;;-141.45;67.36
31403;BME280;18039;52.188;21.024;2022-07-19T03:04:50;75822.69;;;-141.45;67.58
31403;BME280;18039;52.188;21.024;2022-07-19T03:07:17;75826.72;;;-141.45;67.68
31403;BME280;18039;52.188;21.024;2022-07-19T03:09:44;75826.72;;;-141.45;68.09
31403;BME280;18039;52.188;21.024;2022-07-19T03:12:12;75826.72;;;-141.45;68.13
31403;BME280;18039;52.188;21.024;2022-07-19T03:14:39;75834.84;;;-141.45;68.41
31403;BME280;18039;52.188;21.024;2022-07-19T03:17:06;75840.91;;;-141.45;68.32
31403;BME280;18039;52.188;21.024;2022-07-19T03:19:33;75838.91;;;-141.45;68.40
31403;BME280;18039;52.188;21.024;2022-07-19T03:22:00;75834.84;;;-141.45;68.52
31403;BME280;18039;52.188;21.024;2022-07-19T03:24:27;75840.91;;;-141.45;68.34
31403;BME280;18039;52.188;21.024;2022-07-19T03:26:54;75838.91;;;-141.45;68.30
31403;BME280;18039;52.188;21.024;2022-07-19T03:29:21;75834.84;;;-141.45;68.54
31403;BME280;18039;52.188;21.024;2022-07-19T03:31:55;75834.84;;;-141.45;68.63
31403;BME280;18039;52.188;21.024;2022-07-19T03:34:23;75840.91;;;-141.45;69.42
31403;BME280;18039;52.188;21.024;2022-07-19T03:36:50;75838.91;;;-141.45;69.47
31403;BME280;18039;52.188;21.024;2022-07-19T03:39:17;75840.91;;;-141.45;69.40
31403;BME280;18039;52.188;21.024;2022-07-19T03:41:44;75838.91;;;-141.45;69.10
31403;BME280;18039;52.188;21.024;2022-07-19T03:44:11;75836.88;;;-141.45;70.04
31403;BME280;18039;52.188;21.024;2022-07-19T03:46:38;75838.91;;;-141.45;70.81
31403;BME280;18039;52.188;21.024;2022-07-19T03:49:05;75838.91;;;-141.45;70.06
31403;BME280;18039;52.188;21.024;2022-07-19T03:51:32;75842.94;;;-141.45;69.35
31403;BME280;18039;52.188;21.024;2022-07-19T03:53:59;75834.84;;;-141.45;69.92
31403;BME280;18039;52.188;21.024;2022-07-19T03:56:27;75830.78;;;-141.45;69.76
31403;BME280;18039;52.188;21.024;2022-07-19T03:58:54;75832.81;;;-141.45;68.58
31403;BME280;18039;52.188;21.024;2022-07-19T04:01:21;75830.78;;;-141.45;67.71
31403;BME280;18039;52.188;21.024;2022-07-19T04:03:49;75826.72;;;-141.45;67.33
31403;BME280;18039;52.188;21.024;2022-07-19T04:06:16;75820.66;;;-141.45;67.13
31403;BME280;18039;52.188;21.024;2022-07-19T04:08:43;75810.53;;;-141.45;66.72
31403;BME280;18039;52.188;21.024;2022-07-19T04:11:10;75806.47;;;-141.45;67.14
31403;BME280;18039;52.188;21.024;2022-07-19T04:13:37;75798.38;;;-141.45;66.61
31403;BME280;18039;52.188;21.024;2022-07-19T04:16:04;75792.28;;;-141.45;65.42
31403;BME280;18039;52.188;21.024;2022-07-19T04:18:32;75782.16;;;-141.45;64.88
31403;BME280;18039;52.188;21.024;2022-07-19T04:20:59;75778.09;;;-141.45;65.44
31403;BME280;18039;52.188;21.024;2022-07-19T04:23:26;75774.03;;;-141.45;65.45
31403;BME280;18039;52.188;21.024;2022-07-19T04:25:53;75765.94;;;-141.45;65.55
31403;BME280;18039;52.188;21.024;2022-07-19T04:28:20;75759.84;;;-141.45;64.79
31403;BME280;18039;52.188;21.024;2022-07-19T04:30:48;75774.03;;;-141.45;63.90
31403;BME280;18039;52.188;21.024;2022-07-19T04:33:16;75735.53;;;-141.45;63.73
31403;BME280;18039;52.188;21.024;2022-07-19T04:35:44;75721.34;;;-141.45;64.20
31403;BME280;18039;52.188;21.024;2022-07-19T04:38:11;75705.13;;;-141.45;63.79
31403;BME280;18039;52.188;21.024;2022-07-19T04:40:39;75692.97;;;-141.45;63.11
31403;BME280;18039;52.188;21.024;2022-07-19T04:43:06;75676.75;;;-141.45;62.09
31403;BME280;18039;52.188;21.024;2022-07-19T04:45:33;75664.59;;;-141.45;60.94
31403;BME280;18039;52.188;21.024;2022-07-19T04:48:00;75668.66;;;-141.45;59.61
31403;BME280;18039;52.188;21.024;2022-07-19T04:50:27;75672.72;;;-141.45;59.56
31403;BME280;18039;52.188;21.024;2022-07-19T04:52:54;75682.84;;;-141.45;59.70
31403;BME280;18039;52.188;21.024;2022-07-19T04:55:21;75692.97;;;-141.45;59.67
31403;BME280;18039;52.188;21.024;2022-07-19T04:57:48;75695.00;;;-141.45;59.48
31403;BME280;18039;52.188;21.024;2022-07-19T05:00:15;75697.03;;;-141.45;59.40
31403;BME280;18039;52.188;21.024;2022-07-19T05:02:42;75701.09;;;-141.45;59.54
31403;BME280;18039;52.188;21.024;2022-07-19T05:05:09;75709.19;;;-141.45;59.44
31403;BME280;18039;52.188;21.024;2022-07-19T05:07:36;75717.28;;;-141.45;59.04
31403;BME280;18039;52.188;21.024;2022-07-19T05:10:04;75721.34;;;-141.45;59.34
31403;BME280;18039;52.188;21.024;2022-07-19T05:12:31;75717.28;;;-141.45;59.48
31403;BME280;18039;52.188;21.024;2022-07-19T05:14:58;75713.25;;;-141.45;59.40
31403;BME280;18039;52.188;21.024;2022-07-19T05:17:26;75709.19;;;-141.45;57.93
31403;BME280;18039;52.188;21.024;2022-07-19T05:19:53;75701.09;;;-141.45;58.24
31403;BME280;18039;52.188;21.024;2022-07-19T05:22:20;75692.97;;;-141.45;57.81
31403;BME280;18039;52.188;21.024;2022-07-19T05:24:49;75680.81;;;-141.45;58.00
31403;BME280;18039;52.188;21.024;2022-07-19T05:27:16;75682.84;;;-141.45;57.18
31403;BME280;18039;52.188;21.024;2022-07-19T05:29:43;75674.75;;;-141.45;57.37
31403;BME280;18039;52.188;21.024;2022-07-19T05:32:10;75664.59;;;-141.45;57.46
31403;BME280;18039;52.188;21.024;2022-07-19T05:34:37;75656.50;;;-141.45;57.41
31403;BME280;18039;52.188;21.024;2022-07-19T05:37:04;75662.59;;;-141.45;57.63
31403;BME280;18039;52.188;21.024;2022-07-19T05:39:31;75656.50;;;-141.45;58.00
31403;BME280;18039;52.188;21.024;2022-07-19T05:41:58;75660.56;;;-141.45;58.20
31403;BME280;18039;52.188;21.024;2022-07-19T05:44:25;75656.50;;;-141.45;58.17
31403;BME280;18039;52.188;21.024;2022-07-19T05:46:53;75648.41;;;-141.45;58.52
31403;BME280;18039;52.188;21.024;2022-07-19T05:49:20;75652.44;;;-141.45;58.92
31403;BME280;18039;52.188;21.024;2022-07-19T05:51:47;75648.41;;;-141.45;58.79
31403;BME280;18039;52.188;21.024;2022-07-19T05:54:14;75648.41;;;-141.45;59.10
31403;BME280;18039;52.188;21.024;2022-07-19T05:56:41;75648.41;;;-141.45;59.29
31403;BME280;18039;52.188;21.024;2022-07-19T05:59:07;75656.50;;;-141.45;59.33
31403;BME280;18039;52.188;21.024;2022-07-19T06:01:35;75648.41;;;-141.45;59.20
31403;BME280;18039;52.188;21.024;2022-07-19T06:04:02;75652.44;;;-141.45;59.31
31403;BME280;18039;52.188;21.024;2022-07-19T06:06:31;75652.44;;;-141.45;59.74
31403;BME280;18039;52.188;21.024;2022-07-19T06:09:00;75652.44;;;-141.45;59.36
31403;BME280;18039;52.188;21.024;2022-07-19T06:11:27;75656.50;;;-141.45;59.34
31403;BME280;18039;52.188;21.024;2022-07-19T06:13:55;75658.53;;;-141.45;59.57
31403;BME280;18039;52.188;21.024;2022-07-19T06:16:23;75660.56;;;-141.45;59.46
31403;BME280;18039;52.188;21.024;2022-07-19T06:18:50;75660.56;;;-141.45;59.68
31403;BME280;18039;52.188;21.024;2022-07-19T06:21:19;75658.53;;;-141.45;59.53
31403;BME280;18039;52.188;21.024;2022-07-19T06:23:46;75648.41;;;-141.45;59.37
31403;BME280;18039;52.188;21.024;2022-07-19T06:26:14;75628.13;;;-141.45;59.31
31403;BME280;18039;52.188;21.024;2022-07-19T06:28:42;75607.88;;;-141.45;59.26
31403;BME280;18039;52.188;21.024;2022-07-19T06:31:10;75587.59;;;-141.45;59.15
31403;BME280;18039;52.188;21.024;2022-07-19T06:33:42;75567.34;;;-141.45;59.00
31403;BME280;18039;52.188;21.024;2022-07-19T06:36:10;75543.00;;;-141.45;58.04
31403;BME280;18039;52.188;21.024;2022-07-19T06:38:37;75526.81;;;-141.45;56.95
31403;BME280;18039;52.188;21.024;2022-07-19T06:41:05;75526.81;;;-141.45;57.18
31403;BME280;18039;52.188;21.024;2022-07-19T06:43:33;75551.13;;;-141.45;57.89
31403;BME280;18039;52.188;21.024;2022-07-19T06:46:00;75553.16;;;-141.45;58.64
31403;BME280;18039;52.188;21.024;2022-07-19T06:48:27;75551.13;;;-141.45;58.95
31403;BME280;18039;52.188;21.024;2022-07-19T06:50:54;75555.19;;;-141.45;59.09
31403;BME280;18039;52.188;21.024;2022-07-19T06:53:21;75555.19;;;-141.45;59.34
31403;BME280;18039;52.188;21.024;2022-07-19T06:55:48;75559.22;;;-141.45;59.40
31403;BME280;18039;52.188;21.024;2022-07-19T06:58:16;75567.34;;;-141.45;58.21
31403;BME280;18039;52.188;21.024;2022-07-19T07:00:43;75567.34;;;-141.45;57.08
31403;BME280;18039;52.188;21.024;2022-07-19T07:03:10;75559.22;;;-141.45;57.59
31403;BME280;18039;52.188;21.024;2022-07-19T07:05:37;75559.22;;;-141.45;56.36
31403;BME280;18039;52.188;21.024;2022-07-19T07:08:04;75563.28;;;-141.45;56.26
31403;BME280;18039;52.188;21.024;2022-07-19T07:10:31;75551.13;;;-141.45;56.44
31403;BME280;18039;52.188;21.024;2022-07-19T07:12:58;75530.84;;;-141.45;56.15
31403;BME280;18039;52.188;21.024;2022-07-19T07:15:25;75530.84;;;-141.45;55.06
31403;BME280;18039;52.188;21.024;2022-07-19T07:17:52;75504.50;;;-141.45;54.76
31403;BME280;18039;52.188;21.024;2022-07-19T07:20:19;75486.28;;;-141.45;52.76
31403;BME280;18039;52.188;21.024;2022-07-19T07:22:46;75478.16;;;-141.45;52.57
31403;BME280;18039;52.188;21.024;2022-07-19T07:25:13;75468.03;;;-141.45;52.96
31403;BME280;18039;52.188;21.024;2022-07-19T07:27:42;75453.84;;;-141.45;53.28
31403;BME280;18039;52.188;21.024;2022-07-19T07:30:09;75421.44;;;-141.45;52.99
31403;BME280;18039;52.188;21.024;2022-07-19T07:32:37;75397.13;;;-141.45;52.78
31403;BME280;18039;52.188;21.024;2022-07-19T07:35:05;75380.91;;;-141.45;52.48
31403;BME280;18039;52.188;21.024;2022-07-19T07:37:32;75376.84;;;-141.45;51.74
31403;BME280;18039;52.188;21.024;2022-07-19T07:40:00;75358.63;;;-141.45;50.98
31403;BME280;18039;52.188;21.024;2022-07-19T07:42:27;75356.59;;;-141.45;50.61
31403;BME280;18039;52.188;21.024;2022-07-19T07:44:54;75364.69;;;-141.45;49.96
31403;BME280;18039;52.188;21.024;2022-07-19T07:47:20;75368.75;;;-141.45;48.02
31403;BME280;18039;52.188;21.024;2022-07-19T07:49:48;75360.63;;;-141.45;48.64
31403;BME280;18039;52.188;21.024;2022-07-19T07:52:17;75356.59;;;-141.45;49.13
31403;BME280;18039;52.188;21.024;2022-07-19T07:54:44;75352.53;;;-141.45;49.96
31403;BME280;18039;52.188;21.024;2022-07-19T07:57:31;75348.47;;;-141.45;50.53
31403;BME280;18039;52.188;21.024;2022-07-19T07:59:58;75344.44;;;-141.45;51.09
31403;BME280;18039;52.188;21.024;2022-07-19T08:02:25;75350.50;;;-141.45;52.32
31403;BME280;18039;52.188;21.024;2022-07-19T08:04:52;75354.56;;;-141.45;51.74
31403;BME280;18039;52.188;21.024;2022-07-19T08:07:20;75356.59;;;-141.45;51.67
31403;BME280;18039;52.188;21.024;2022-07-19T08:09:47;75354.56;;;-141.45;51.63
31403;BME280;18039;52.188;21.024;2022-07-19T08:12:14;75348.47;;;-141.45;51.45
31403;BME280;18039;52.188;21.024;2022-07-19T08:14:41;75342.41;;;-141.45;51.50
31403;BME280;18039;52.188;21.024;2022-07-19T08:17:08;75336.31;;;-141.45;51.24
31403;BME280;18039;52.188;21.024;2022-07-19T08:19:35;75336.31;;;-141.45;50.87
31403;BME280;18039;52.188;21.024;2022-07-19T08:22:02;75340.38;;;-141.45;50.82
31403;BME280;18039;52.188;21.024;2022-07-19T08:24:29;75332.28;;;-141.45;50.88
31403;BME280;18039;52.188;21.024;2022-07-19T08:26:57;75350.50;;;-141.45;50.71
31403;BME280;18039;52.188;21.024;2022-07-19T08:29:24;75328.22;;;-141.45;50.43
31403;BME280;18039;52.188;21.024;2022-07-19T08:31:51;75320.13;;;-141.45;49.53
31403;BME280;18039;52.188;21.024;2022-07-19T08:34:18;75316.06;;;-141.45;49.34
31403;BME280;18039;52.188;21.024;2022-07-19T08:36:45;75303.91;;;-141.45;49.55
31403;BME280;18039;52.188;21.024;2022-07-19T08:39:12;75287.69;;;-141.45;49.50
31403;BME280;18039;52.188;21.024;2022-07-19T08:41:42;75267.44;;;-141.45;48.52
31403;BME280;18039;52.188;21.024;2022-07-19T08:44:10;75249.19;;;-141.45;48.45
31403;BME280;18039;52.188;21.024;2022-07-19T08:46:41;75224.88;;;-141.45;48.76
31403;BME280;18039;52.188;21.024;2022-07-19T08:49:09;75202.59;;;-141.45;48.18
31403;BME280;18039;52.188;21.024;2022-07-19T08:51:37;75206.63;;;-141.45;47.55
31403;BME280;18039;52.188;21.024;2022-07-19T08:54:04;75216.78;;;-141.45;46.73
31403;BME280;18039;52.188;21.024;2022-07-19T08:56:32;75214.75;;;-141.45;47.58
31403;BME280;18039;52.188;21.024;2022-07-19T08:59:17;75222.84;;;-141.45;46.89
31403;BME280;18039;52.188;21.024;2022-07-19T09:01:45;75222.84;;;-141.45;47.60
31403;BME280;18039;52.188;21.024;2022-07-19T09:04:20;75220.81;;;-141.45;46.56
31403;BME280;18039;52.188;21.024;2022-07-19T09:06:50;75218.78;;;-141.45;46.53
31403;BME280;18039;52.188;21.024;2022-07-19T09:09:41;75214.75;;;-141.45;47.33
31403;BME280;18039;52.188;21.024;2022-07-19T09:12:13;75208.66;;;-141.45;47.49
31403;BME280;18039;52.188;21.024;2022-07-19T09:14:40;75196.50;;;-141.45;47.43
31403;BME280;18039;52.188;21.024;2022-07-19T09:17:09;75198.53;;;-141.45;47.01
31403;BME280;18039;52.188;21.024;2022-07-19T09:19:41;75198.53;;;-141.45;46.20
31403;BME280;18039;52.188;21.024;2022-07-19T09:22:14;75186.38;;;-141.45;45.72
31403;BME280;18039;52.188;21.024;2022-07-19T09:24:44;75186.38;;;-141.45;45.23
31403;BME280;18039;52.188;21.024;2022-07-19T09:27:16;75182.31;;;-141.45;44.34
31403;BME280;18039;52.188;21.024;2022-07-19T09:29:47;75198.53;;;-141.45;45.05
31403;BME280;18039;52.188;21.024;2022-07-19T09:32:20;75206.63;;;-141.45;44.84
31403;BME280;18039;52.188;21.024;2022-07-19T09:37:17;75218.78;;;-141.45;45.67
31403;BME280;18039;52.188;21.024;2022-07-19T09:39:47;75214.75;;;-141.45;46.40
31403;BME280;18039;52.188;21.024;2022-07-19T09:42:33;75214.75;;;-141.45;46.97
31403;BME280;18039;52.188;21.024;2022-07-19T09:45:04;75210.69;;;-141.45;47.23
31403;BME280;18039;52.188;21.024;2022-07-19T09:47:33;75202.59;;;-141.45;47.20
31403;BME280;18039;52.188;21.024;2022-07-19T09:50:03;75192.44;;;-141.45;46.83
31403;BME280;18039;52.188;21.024;2022-07-19T09:52:33;75194.47;;;-141.45;46.77
31403;BME280;18039;52.188;21.024;2022-07-19T09:55:09;75190.44;;;-141.45;47.08
31403;BME280;18039;52.188;21.024;2022-07-19T09:57:39;75186.38;;;-141.45;45.99
31403;BME280;18039;52.188;21.024;2022-07-19T10:00:08;75178.28;;;-141.45;45.58
31403;BME280;18039;52.188;21.024;2022-07-19T10:02:38;75170.16;;;-141.45;44.10
31403;BME280;18039;52.188;21.024;2022-07-19T10:05:06;75149.91;;;-141.45;42.78
31403;BME280;18039;52.188;21.024;2022-07-19T10:07:34;75145.84;;;-141.45;43.63
31403;BME280;18039;52.188;21.024;2022-07-19T10:10:05;75137.75;;;-141.45;44.30
31403;BME280;18039;52.188;21.024;2022-07-19T10:12:33;75133.69;;;-141.45;44.27
31403;BME280;18039;52.188;21.024;2022-07-19T10:15:00;75125.59;;;-141.45;43.54
31403;BME280;18039;52.188;21.024;2022-07-19T10:17:38;75097.22;;;-141.45;42.49
31403;BME280;18039;52.188;21.024;2022-07-19T10:20:06;75089.13;;;-141.45;42.67
31403;BME280;18039;52.188;21.024;2022-07-19T10:22:34;75085.06;;;-141.45;42.98
31403;BME280;18039;52.188;21.024;2022-07-19T10:27:43;75068.84;;;-141.45;41.84
31403;BME280;18039;52.188;21.024;2022-07-19T10:32:40;75064.81;;;-141.45;41.57
31403;BME280;18039;52.188;21.024;2022-07-19T10:35:27;75056.69;;;-141.45;41.67
31403;BME280;18039;52.188;21.024;2022-07-19T10:40:43;75016.16;;;-141.45;41.34
31403;BME280;18039;52.188;21.024;2022-07-19T10:43:15;74999.97;;;-141.45;40.84
31403;BME280;18039;52.188;21.024;2022-07-19T10:46:29;74995.91;;;-141.45;41.17
31403;BME280;18039;52.188;21.024;2022-07-19T10:48:38;74971.59;;;-141.45;39.85
31403;BME280;18039;52.188;21.024;2022-07-19T10:51:06;74951.34;;;-141.45;39.67
31403;BME280;18039;52.188;21.024;2022-07-19T10:56:16;74957.41;;;-141.45;39.72
31403;BME280;18039;52.188;21.024;2022-07-19T10:58:49;74931.06;;;-141.45;39.72
31403;BME280;18039;52.188;21.024;2022-07-19T11:01:18;74914.88;;;-141.45;39.54
31403;BME280;18039;52.188;21.024;2022-07-19T11:03:46;74882.44;;;-141.45;38.56
31403;BME280;18039;52.188;21.024;2022-07-19T11:06:23;74882.44;;;-141.45;39.00
31403;BME280;18039;52.188;21.024;2022-07-19T11:08:56;74866.25;;;-141.45;39.04
31403;BME280;18039;52.188;21.024;2022-07-19T11:11:24;74870.28;;;-141.45;38.67
31403;BME280;18039;52.188;21.024;2022-07-19T11:13:57;74845.97;;;-141.45;38.62
31403;BME280;18039;52.188;21.024;2022-07-19T11:16:25;74837.88;;;-141.45;38.66
31403;BME280;18039;52.188;21.024;2022-07-19T11:19:05;74813.56;;;-141.45;39.21
31403;BME280;18039;52.188;21.024;2022-07-19T11:21:34;74809.50;;;-141.45;38.82
31403;BME280;18039;52.188;21.024;2022-07-19T11:24:04;74805.47;;;-141.45;38.73
31403;BME280;18039;52.188;21.024;2022-07-19T11:26:39;74797.34;;;-141.45;37.77
31403;BME280;18039;52.188;21.024;2022-07-19T11:29:13;74805.47;;;-141.45;38.54
31403;BME280;18039;52.188;21.024;2022-07-19T11:31:47;74805.47;;;-141.45;38.53
31403;BME280;18039;52.188;21.024;2022-07-19T11:34:15;74805.47;;;-141.45;38.43
31403;BME280;18039;52.188;21.024;2022-07-19T11:36:41;74801.41;;;-141.45;38.77
31403;BME280;18039;52.188;21.024;2022-07-19T11:39:08;74781.16;;;-141.45;38.31
31403;BME280;18039;52.188;21.024;2022-07-19T11:41:36;74764.94;;;-141.45;38.99
31403;BME280;18039;52.188;21.024;2022-07-19T11:44:05;74760.88;;;-141.45;38.27
31403;BME280;18039;52.188;21.024;2022-07-19T11:46:35;74736.56;;;-141.45;38.03
31403;BME280;18039;52.188;21.024;2022-07-19T11:49:06;74732.53;;;-141.45;37.22
31403;BME280;18039;52.188;21.024;2022-07-19T11:51:34;74708.22;;;-141.45;38.62
31403;BME280;18039;52.188;21.024;2022-07-19T11:54:04;74696.06;;;-141.45;38.33
31403;BME280;18039;52.188;21.024;2022-07-19T11:56:33;74708.22;;;-141.45;37.90
31403;BME280;18039;52.188;21.024;2022-07-19T11:59:04;74708.22;;;-141.45;38.09
31403;BME280;18039;52.188;21.024;2022-07-19T12:01:36;74704.16;;;-141.45;37.05
31403;BME280;18039;52.188;21.024;2022-07-19T12:04:05;74677.81;;;-141.45;36.06
31403;BME280;18039;52.188;21.024;2022-07-19T12:06:37;74671.75;;;-141.45;36.51
31403;BME280;18039;52.188;21.024;2022-07-19T12:09:09;74661.59;;;-141.45;35.84
31403;BME280;18039;52.188;21.024;2022-07-19T12:11:49;74651.47;;;-141.45;35.42
31403;BME280;18039;52.188;21.024;2022-07-19T12:16:45;74700.09;;;-141.45;36.14
31403;BME280;18039;52.188;21.024;2022-07-19T12:19:12;74708.22;;;-141.45;36.84
31403;BME280;18039;52.188;21.024;2022-07-19T12:21:41;74704.16;;;-141.45;36.67
31403;BME280;18039;52.188;21.024;2022-07-19T12:24:21;74700.09;;;-141.45;36.20
31403;BME280;18039;52.188;21.024;2022-07-19T12:29:32;74687.94;;;-141.45;36.22
31403;BME280;18039;52.188;21.024;2022-07-19T12:32:36;74651.47;;;-141.45;36.08
31403;BME280;18039;52.188;21.024;2022-07-19T12:35:10;74631.22;;;-141.45;36.38
31403;BME280;18039;52.188;21.024;2022-07-19T12:37:40;74615.00;;;-141.45;36.38
31403;BME280;18039;52.188;21.024;2022-07-19T12:40:12;74613.00;;;-141.45;36.16
31403;BME280;18039;52.188;21.024;2022-07-19T12:45:08;74582.59;;;-141.45;35.50
31403;BME280;18039;52.188;21.024;2022-07-19T12:47:35;74576.53;;;-141.45;35.00
31403;BME280;18039;52.188;21.024;2022-07-19T12:50:05;74578.53;;;-141.45;35.01
31403;BME280;18039;52.188;21.024;2022-07-19T12:52:38;74562.34;;;-141.45;35.23
31403;BME280;18039;52.188;21.024;2022-07-19T12:55:06;74550.19;;;-141.45;35.46
31403;BME280;18039;52.188;21.024;2022-07-19T12:57:40;74525.88;;;-141.45;34.94